sensor_id;sensor_type;location;lat;lon;timestamp;P1;durP1;ratioP1;P2;durP2;ratioP2
65145;SDS011;51730;56.950;24.126;2022-09-23T00:01:10;4.32;;;3.80;;
65145;SDS011;51730;56.950;24.126;2022-09-23T00:03:39;4.93;;;3.97;;
65145;SDS011;51730;56.950;24.126;2022-09-23T00:06:09;5.50;;;4.10;;
65145;SDS011;51730;56.950;24.126;2022-09-23T00:08:44;6.50;;;3.70;;
65145;SDS011;51730;56.950;24.126;2022-09-23T00:11:12;5.90;;;4.13;;
65145;SDS011;51730;56.950;24.126;2022-09-23T00:13:41;5.75;;;3.97;;
65145;SDS011;51730;56.950;24.126;2022-09-23T00:16:11;5.28;;;3.72;;
65145;SDS011;51730;56.950;24.126;2022-09-23T00:18:40;4.78;;;3.53;;
65145;SDS011;51730;56.950;24.126;2022-09-23T00:21:09;4.57;;;3.25;;
65145;SDS011;51730;56.950;24.126;2022-09-23T00:23:38;5.50;;;3.58;;
65145;SDS011;51730;56.950;24.126;2022-09-23T00:26:09;5.40;;;3.35;;
65145;SDS011;51730;56.950;24.126;2022-09-23T00:28:39;4.45;;;2.88;;
65145;SDS011;51730;56.950;24.126;2022-09-23T00:31:08;4.40;;;3.30;;
65145;SDS011;51730;56.950;24.126;2022-09-23T00:33:37;4.25;;;3.67;;
65145;SDS011;51730;56.950;24.126;2022-09-23T00:36:06;5.68;;;3.40;;
65145;SDS011;51730;56.950;24.126;2022-09-23T00:38:41;3.95;;;3.47;;
65145;SDS011;51730;56.950;24.126;2022-09-23T00:41:11;5.90;;;3.90;;
65145;SDS011;51730;56.950;24.126;2022-09-23T00:43:49;4.85;;;3.88;;
65145;SDS011;51730;56.950;24.126;2022-09-23T00:46:37;5.20;;;3.75;;
65145;SDS011;51730;56.950;24.126;2022-09-23T00:49:14;4.43;;;3.40;;
65145;SDS011;51730;56.950;24.126;2022-09-23T00:51:49;4.65;;;3.85;;
65145;SDS011;51730;56.950;24.126;2022-09-23T00:54:33;5.03;;;3.60;;
65145;SDS011;51730;56.950;24.126;2022-09-23T00:57:00;4.20;;;3.42;;
65145;SDS011;51730;56.950;24.126;2022-09-23T00:59:29;4.35;;;3.75;;
65145;SDS011;51730;56.950;24.126;2022-09-23T01:01:56;7.07;;;3.47;;
65145;SDS011;51730;56.950;24.126;2022-09-23T01:04:28;5.50;;;3.75;;
65145;SDS011;51730;56.950;24.126;2022-09-23T01:06:56;3.88;;;3.40;;
65145;SDS011;51730;56.950;24.126;2022-09-23T01:09:22;4.68;;;3.47;;
65145;SDS011;51730;56.950;24.126;2022-09-23T01:17:10;5.57;;;3.55;;
65145;SDS011;51730;56.950;24.126;2022-09-23T01:25:32;4.10;;;3.42;;
65145;SDS011;51730;56.950;24.126;2022-09-23T01:28:27;6.03;;;3.38;;
65145;SDS011;51730;56.950;24.126;2022-09-23T01:31:05;5.75;;;3.78;;
65145;SDS011;51730;56.950;24.126;2022-09-23T01:33:49;4.78;;;3.15;;
65145;SDS011;51730;56.950;24.126;2022-09-23T01:36:36;3.25;;;2.83;;
65145;SDS011;51730;56.950;24.126;2022-09-23T01:42:20;5.45;;;2.95;;
65145;SDS011;51730;56.950;24.126;2022-09-23T01:44:55;7.00;;;3.50;;
65145;SDS011;51730;56.950;24.126;2022-09-23T01:47:33;4.40;;;3.80;;
65145;SDS011;51730;56.950;24.126;2022-09-23T01:50:06;3.88;;;3.25;;
65145;SDS011;51730;56.950;24.126;2022-09-23T01:53:00;4.43;;;3.35;;
65145;SDS011;51730;56.950;24.126;2022-09-23T01:55:38;6.10;;;4.28;;
65145;SDS011;51730;56.950;24.126;2022-09-23T01:58:21;4.45;;;3.45;;
65145;SDS011;51730;56.950;24.126;2022-09-23T02:00:53;5.13;;;3.40;;
65145;SDS011;51730;56.950;24.126;2022-09-23T02:03:29;4.50;;;3.45;;
65145;SDS011;51730;56.950;24.126;2022-09-23T02:06:20;3.60;;;3.20;;
65145;SDS011;51730;56.950;24.126;2022-09-23T02:08:54;4.47;;;3.53;;
65145;SDS011;51730;56.950;24.126;2022-09-23T02:11:44;4.28;;;3.47;;
65145;SDS011;51730;56.950;24.126;2022-09-23T02:14:15;4.00;;;3.17;;
65145;SDS011;51730;56.950;24.126;2022-09-23T02:16:53;4.72;;;3.40;;
65145;SDS011;51730;56.950;24.126;2022-09-23T02:19:27;4.78;;;3.65;;
65145;SDS011;51730;56.950;24.126;2022-09-23T02:22:07;6.15;;;3.38;;
65145;SDS011;51730;56.950;24.126;2022-09-23T02:24:39;4.82;;;3.40;;
65145;SDS011;51730;56.950;24.126;2022-09-23T02:29:50;4.22;;;3.70;;
65145;SDS011;51730;56.950;24.126;2022-09-23T02:45:17;4.68;;;3.47;;
65145;SDS011;51730;56.950;24.126;2022-09-23T02:47:46;4.93;;;3.47;;
65145;SDS011;51730;56.950;24.126;2022-09-23T02:50:18;6.60;;;3.35;;
65145;SDS011;51730;56.950;24.126;2022-09-23T02:52:45;4.35;;;3.38;;
65145;SDS011;51730;56.950;24.126;2022-09-23T02:55:14;5.80;;;3.88;;
65145;SDS011;51730;56.950;24.126;2022-09-23T02:57:43;4.40;;;3.90;;
65145;SDS011;51730;56.950;24.126;2022-09-23T03:00:11;7.88;;;3.70;;
65145;SDS011;51730;56.950;24.126;2022-09-23T03:05:29;6.40;;;3.38;;
65145;SDS011;51730;56.950;24.126;2022-09-23T03:10:54;6.78;;;4.20;;
65145;SDS011;51730;56.950;24.126;2022-09-23T03:16:37;6.40;;;4.00;;
65145;SDS011;51730;56.950;24.126;2022-09-23T03:19:20;7.20;;;4.63;;
65145;SDS011;51730;56.950;24.126;2022-09-23T03:24:28;6.60;;;4.50;;
65145;SDS011;51730;56.950;24.126;2022-09-23T03:26:57;5.95;;;3.67;;
65145;SDS011;51730;56.950;24.126;2022-09-23T03:29:28;6.75;;;4.10;;
65145;SDS011;51730;56.950;24.126;2022-09-23T03:31:57;5.63;;;3.88;;
65145;SDS011;51730;56.950;24.126;2022-09-23T03:34:28;5.25;;;4.07;;
65145;SDS011;51730;56.950;24.126;2022-09-23T03:37:03;8.85;;;4.53;;
65145;SDS011;51730;56.950;24.126;2022-09-23T03:39:42;5.63;;;4.35;;
65145;SDS011;51730;56.950;24.126;2022-09-23T03:42:14;8.10;;;4.15;;
65145;SDS011;51730;56.950;24.126;2022-09-23T03:44:46;7.25;;;4.28;;
65145;SDS011;51730;56.950;24.126;2022-09-23T03:47:19;7.60;;;5.30;;
65145;SDS011;51730;56.950;24.126;2022-09-23T03:49:47;4.90;;;4.03;;
65145;SDS011;51730;56.950;24.126;2022-09-23T03:52:19;8.00;;;4.28;;
65145;SDS011;51730;56.950;24.126;2022-09-23T03:54:48;12.60;;;9.70;;
65145;SDS011;51730;56.950;24.126;2022-09-23T03:57:17;14.10;;;9.73;;
65145;SDS011;51730;56.950;24.126;2022-09-23T03:59:47;8.82;;;5.22;;
65145;SDS011;51730;56.950;24.126;2022-09-23T04:02:16;9.65;;;4.80;;
65145;SDS011;51730;56.950;24.126;2022-09-23T04:04:44;7.63;;;4.90;;
65145;SDS011;51730;56.950;24.126;2022-09-23T04:07:11;8.30;;;4.85;;
65145;SDS011;51730;56.950;24.126;2022-09-23T04:09:39;9.30;;;5.47;;
65145;SDS011;51730;56.950;24.126;2022-09-23T04:12:06;6.22;;;4.78;;
65145;SDS011;51730;56.950;24.126;2022-09-23T04:14:36;7.65;;;4.80;;
65145;SDS011;51730;56.950;24.126;2022-09-23T04:17:04;6.65;;;5.00;;
65145;SDS011;51730;56.950;24.126;2022-09-23T04:19:31;8.50;;;5.53;;
65145;SDS011;51730;56.950;24.126;2022-09-23T04:21:58;6.53;;;5.15;;
65145;SDS011;51730;56.950;24.126;2022-09-23T04:24:25;6.60;;;5.07;;
65145;SDS011;51730;56.950;24.126;2022-09-23T04:26:52;7.97;;;5.03;;
65145;SDS011;51730;56.950;24.126;2022-09-23T04:29:20;7.28;;;4.68;;
65145;SDS011;51730;56.950;24.126;2022-09-23T04:31:49;6.68;;;5.07;;
65145;SDS011;51730;56.950;24.126;2022-09-23T04:34:16;7.40;;;4.60;;
65145;SDS011;51730;56.950;24.126;2022-09-23T04:36:44;5.30;;;4.68;;
65145;SDS011;51730;56.950;24.126;2022-09-23T04:39:13;7.60;;;4.75;;
65145;SDS011;51730;56.950;24.126;2022-09-23T04:41:42;8.20;;;4.78;;
65145;SDS011;51730;56.950;24.126;2022-09-23T04:44:10;7.30;;;4.85;;
65145;SDS011;51730;56.950;24.126;2022-09-23T04:46:38;10.50;;;5.50;;
65145;SDS011;51730;56.950;24.126;2022-09-23T04:49:13;7.47;;;5.00;;
65145;SDS011;51730;56.950;24.126;2022-09-23T04:51:40;6.82;;;4.45;;
65145;SDS011;51730;56.950;24.126;2022-09-23T04:54:09;7.70;;;5.15;;
65145;SDS011;51730;56.950;24.126;2022-09-23T04:56:37;7.57;;;4.85;;
65145;SDS011;51730;56.950;24.126;2022-09-23T04:59:05;8.70;;;5.60;;
65145;SDS011;51730;56.950;24.126;2022-09-23T05:01:33;11.23;;;5.55;;
65145;SDS011;51730;56.950;24.126;2022-09-23T05:04:08;8.57;;;5.50;;
65145;SDS011;51730;56.950;24.126;2022-09-23T05:06:42;10.30;;;5.25;;
65145;SDS011;51730;56.950;24.126;2022-09-23T05:09:13;7.32;;;5.30;;
65145;SDS011;51730;56.950;24.126;2022-09-23T05:11:43;7.40;;;4.82;;
65145;SDS011;51730;56.950;24.126;2022-09-23T05:14:11;8.38;;;5.30;;
65145;SDS011;51730;56.950;24.126;2022-09-23T05:16:38;9.18;;;5.80;;
65145;SDS011;51730;56.950;24.126;2022-09-23T05:19:05;7.07;;;5.65;;
65145;SDS011;51730;56.950;24.126;2022-09-23T05:21:33;10.73;;;5.68;;
65145;SDS011;51730;56.950;24.126;2022-09-23T05:24:00;9.80;;;6.70;;
65145;SDS011;51730;56.950;24.126;2022-09-23T05:26:29;8.52;;;6.80;;
65145;SDS011;51730;56.950;24.126;2022-09-23T05:28:57;9.95;;;6.75;;
65145;SDS011;51730;56.950;24.126;2022-09-23T05:31:26;10.80;;;7.50;;
65145;SDS011;51730;56.950;24.126;2022-09-23T05:33:55;10.90;;;6.88;;
65145;SDS011;51730;56.950;24.126;2022-09-23T05:36:24;10.75;;;7.30;;
65145;SDS011;51730;56.950;24.126;2022-09-23T05:38:52;11.80;;;5.65;;
65145;SDS011;51730;56.950;24.126;2022-09-23T05:41:21;11.43;;;6.72;;
65145;SDS011;51730;56.950;24.126;2022-09-23T05:43:49;17.00;;;7.20;;
65145;SDS011;51730;56.950;24.126;2022-09-23T05:46:27;9.90;;;5.57;;
65145;SDS011;51730;56.950;24.126;2022-09-23T05:48:55;14.30;;;6.50;;
65145;SDS011;51730;56.950;24.126;2022-09-23T05:51:28;11.50;;;6.45;;
65145;SDS011;51730;56.950;24.126;2022-09-23T05:53:57;22.98;;;7.15;;
65145;SDS011;51730;56.950;24.126;2022-09-23T05:56:25;22.85;;;7.45;;
65145;SDS011;51730;56.950;24.126;2022-09-23T05:58:54;28.48;;;9.20;;
65145;SDS011;51730;56.950;24.126;2022-09-23T06:01:23;25.05;;;7.75;;
65145;SDS011;51730;56.950;24.126;2022-09-23T06:03:58;20.55;;;6.90;;
65145;SDS011;51730;56.950;24.126;2022-09-23T06:06:27;13.68;;;6.32;;
65145;SDS011;51730;56.950;24.126;2022-09-23T06:08:56;14.07;;;5.22;;
65145;SDS011;51730;56.950;24.126;2022-09-23T06:11:28;14.10;;;5.60;;
65145;SDS011;51730;56.950;24.126;2022-09-23T06:13:57;18.73;;;6.60;;
65145;SDS011;51730;56.950;24.126;2022-09-23T06:16:27;16.40;;;6.65;;
65145;SDS011;51730;56.950;24.126;2022-09-23T06:18:55;20.38;;;6.65;;
65145;SDS011;51730;56.950;24.126;2022-09-23T06:21:28;21.92;;;7.07;;
65145;SDS011;51730;56.950;24.126;2022-09-23T06:23:56;19.92;;;6.32;;
65145;SDS011;51730;56.950;24.126;2022-09-23T06:26:25;19.63;;;8.07;;
65145;SDS011;51730;56.950;24.126;2022-09-23T06:28:54;16.98;;;6.72;;
65145;SDS011;51730;56.950;24.126;2022-09-23T06:31:21;22.05;;;7.95;;
65145;SDS011;51730;56.950;24.126;2022-09-23T06:33:48;31.10;;;15.18;;
65145;SDS011;51730;56.950;24.126;2022-09-23T06:36:19;35.60;;;18.55;;
65145;SDS011;51730;56.950;24.126;2022-09-23T06:39:05;37.45;;;16.63;;
65145;SDS011;51730;56.950;24.126;2022-09-23T06:41:31;22.42;;;10.07;;
65145;SDS011;51730;56.950;24.126;2022-09-23T06:44:13;43.47;;;11.30;;
65145;SDS011;51730;56.950;24.126;2022-09-23T06:46:40;30.33;;;11.13;;
65145;SDS011;51730;56.950;24.126;2022-09-23T06:49:07;24.95;;;10.88;;
65145;SDS011;51730;56.950;24.126;2022-09-23T06:51:34;27.05;;;9.65;;
65145;SDS011;51730;56.950;24.126;2022-09-23T06:54:01;27.33;;;11.35;;
65145;SDS011;51730;56.950;24.126;2022-09-23T06:56:28;21.60;;;13.07;;
65145;SDS011;51730;56.950;24.126;2022-09-23T06:59:03;17.98;;;12.40;;
65145;SDS011;51730;56.950;24.126;2022-09-23T07:01:29;21.13;;;13.93;;
65145;SDS011;51730;56.950;24.126;2022-09-23T07:03:59;31.70;;;13.68;;
65145;SDS011;51730;56.950;24.126;2022-09-23T07:06:27;18.92;;;14.02;;
65145;SDS011;51730;56.950;24.126;2022-09-23T07:08:53;15.75;;;10.75;;
65145;SDS011;51730;56.950;24.126;2022-09-23T07:11:20;16.02;;;9.95;;
65145;SDS011;51730;56.950;24.126;2022-09-23T07:13:48;15.32;;;11.65;;
65145;SDS011;51730;56.950;24.126;2022-09-23T07:16:15;18.52;;;10.18;;
65145;SDS011;51730;56.950;24.126;2022-09-23T07:18:42;13.73;;;9.23;;
65145;SDS011;51730;56.950;24.126;2022-09-23T07:21:14;10.88;;;8.57;;
65145;SDS011;51730;56.950;24.126;2022-09-23T07:23:43;16.92;;;8.23;;
65145;SDS011;51730;56.950;24.126;2022-09-23T07:26:12;13.10;;;6.57;;
65145;SDS011;51730;56.950;24.126;2022-09-23T07:28:40;11.48;;;7.30;;
65145;SDS011;51730;56.950;24.126;2022-09-23T07:31:08;9.90;;;6.38;;
65145;SDS011;51730;56.950;24.126;2022-09-23T07:33:37;12.40;;;6.60;;
65145;SDS011;51730;56.950;24.126;2022-09-23T07:36:06;18.20;;;6.05;;
65145;SDS011;51730;56.950;24.126;2022-09-23T07:38:36;25.52;;;8.43;;
65145;SDS011;51730;56.950;24.126;2022-09-23T07:41:11;12.38;;;5.63;;
65145;SDS011;51730;56.950;24.126;2022-09-23T07:43:39;20.65;;;5.90;;
65145;SDS011;51730;56.950;24.126;2022-09-23T07:46:09;65.55;;;10.38;;
65145;SDS011;51730;56.950;24.126;2022-09-23T07:48:40;11.85;;;4.97;;
65145;SDS011;51730;56.950;24.126;2022-09-23T07:51:08;39.08;;;10.02;;
65145;SDS011;51730;56.950;24.126;2022-09-23T07:53:37;28.85;;;7.32;;
65145;SDS011;51730;56.950;24.126;2022-09-23T07:56:04;29.35;;;9.30;;
65145;SDS011;51730;56.950;24.126;2022-09-23T07:58:32;43.08;;;12.57;;
65145;SDS011;51730;56.950;24.126;2022-09-23T08:01:04;12.18;;;4.60;;
65145;SDS011;51730;56.950;24.126;2022-09-23T08:03:34;7.18;;;3.67;;
65145;SDS011;51730;56.950;24.126;2022-09-23T08:06:05;11.48;;;3.83;;
65145;SDS011;51730;56.950;24.126;2022-09-23T08:08:33;9.88;;;2.70;;
65145;SDS011;51730;56.950;24.126;2022-09-23T08:11:02;5.28;;;3.58;;
65145;SDS011;51730;56.950;24.126;2022-09-23T08:13:29;5.95;;;3.13;;
65145;SDS011;51730;56.950;24.126;2022-09-23T08:15:58;8.52;;;3.67;;
65145;SDS011;51730;56.950;24.126;2022-09-23T08:18:25;7.40;;;3.80;;
65145;SDS011;51730;56.950;24.126;2022-09-23T08:20:52;113.70;;;11.98;;
65145;SDS011;51730;56.950;24.126;2022-09-23T08:23:19;6.93;;;3.10;;
65145;SDS011;51730;56.950;24.126;2022-09-23T08:25:46;6.05;;;3.25;;
65145;SDS011;51730;56.950;24.126;2022-09-23T08:28:14;7.20;;;4.30;;
65145;SDS011;51730;56.950;24.126;2022-09-23T08:30:46;12.15;;;5.40;;
65145;SDS011;51730;56.950;24.126;2022-09-23T08:33:14;12.98;;;6.30;;
65145;SDS011;51730;56.950;24.126;2022-09-23T08:35:47;9.23;;;4.38;;
65145;SDS011;51730;56.950;24.126;2022-09-23T08:38:14;6.93;;;4.20;;
65145;SDS011;51730;56.950;24.126;2022-09-23T08:40:42;8.00;;;3.97;;
65145;SDS011;51730;56.950;24.126;2022-09-23T08:45:53;4.30;;;2.70;;
65145;SDS011;51730;56.950;24.126;2022-09-23T08:51:07;5.78;;;2.75;;
65145;SDS011;51730;56.950;24.126;2022-09-23T08:53:41;5.82;;;2.58;;
65145;SDS011;51730;56.950;24.126;2022-09-23T08:56:12;4.82;;;2.20;;
65145;SDS011;51730;56.950;24.126;2022-09-23T08:58:42;3.25;;;1.80;;
65145;SDS011;51730;56.950;24.126;2022-09-23T09:15:51;1.80;;;1.70;;
65145;SDS011;51730;56.950;24.126;2022-09-23T09:18:38;5.72;;;2.20;;
65145;SDS011;51730;56.950;24.126;2022-09-23T09:21:18;4.03;;;1.88;;
65145;SDS011;51730;56.950;24.126;2022-09-23T09:24:00;4.00;;;2.40;;
65145;SDS011;51730;56.950;24.126;2022-09-23T09:26:30;3.17;;;2.58;;
65145;SDS011;51730;56.950;24.126;2022-09-23T09:29:02;3.60;;;2.15;;
65145;SDS011;51730;56.950;24.126;2022-09-23T09:31:59;3.47;;;1.98;;
65145;SDS011;51730;56.950;24.126;2022-09-23T09:34:53;3.38;;;2.00;;
65145;SDS011;51730;56.950;24.126;2022-09-23T09:37:33;2.13;;;1.92;;
65145;SDS011;51730;56.950;24.126;2022-09-23T09:40:10;2.25;;;1.60;;
65145;SDS011;51730;56.950;24.126;2022-09-23T09:42:39;1.83;;;1.70;;
65145;SDS011;51730;56.950;24.126;2022-09-23T09:48:09;1.55;;;1.40;;
65145;SDS011;51730;56.950;24.126;2022-09-23T09:50:50;3.60;;;1.98;;
65145;SDS011;51730;56.950;24.126;2022-09-23T09:55:46;3.17;;;2.28;;
65145;SDS011;51730;56.950;24.126;2022-09-23T09:58:48;5.53;;;2.50;;
65145;SDS011;51730;56.950;24.126;2022-09-23T10:01:21;9.55;;;3.17;;
65145;SDS011;51730;56.950;24.126;2022-09-23T10:03:57;7.47;;;2.60;;
65145;SDS011;51730;56.950;24.126;2022-09-23T10:06:46;5.15;;;2.40;;
65145;SDS011;51730;56.950;24.126;2022-09-23T10:09:39;5.95;;;2.80;;
65145;SDS011;51730;56.950;24.126;2022-09-23T10:12:15;5.47;;;2.38;;
65145;SDS011;51730;56.950;24.126;2022-09-23T10:14:44;6.85;;;2.67;;
65145;SDS011;51730;56.950;24.126;2022-09-23T10:17:36;6.57;;;2.47;;
65145;SDS011;51730;56.950;24.126;2022-09-23T10:20:07;8.23;;;2.47;;
65145;SDS011;51730;56.950;24.126;2022-09-23T10:22:36;7.13;;;3.60;;
65145;SDS011;51730;56.950;24.126;2022-09-23T10:25:22;8.60;;;2.75;;
65145;SDS011;51730;56.950;24.126;2022-09-23T10:27:52;7.43;;;3.20;;
65145;SDS011;51730;56.950;24.126;2022-09-23T10:30:20;4.85;;;2.35;;
65145;SDS011;51730;56.950;24.126;2022-09-23T10:32:52;4.10;;;2.00;;
65145;SDS011;51730;56.950;24.126;2022-09-23T10:35:22;7.05;;;2.55;;
65145;SDS011;51730;56.950;24.126;2022-09-23T10:37:51;6.85;;;2.17;;
65145;SDS011;51730;56.950;24.126;2022-09-23T10:46:21;8.85;;;3.10;;
65145;SDS011;51730;56.950;24.126;2022-09-23T11:13:40;3.05;;;1.60;;
65145;SDS011;51730;56.950;24.126;2022-09-23T11:27:34;5.72;;;2.42;;
65145;SDS011;51730;56.950;24.126;2022-09-23T11:30:25;4.47;;;2.10;;
65145;SDS011;51730;56.950;24.126;2022-09-23T11:35:50;4.43;;;2.20;;
65145;SDS011;51730;56.950;24.126;2022-09-23T11:38:30;5.13;;;2.65;;
65145;SDS011;51730;56.950;24.126;2022-09-23T11:43:42;2.20;;;2.00;;
65145;SDS011;51730;56.950;24.126;2022-09-23T11:48:58;3.00;;;1.77;;
65145;SDS011;51730;56.950;24.126;2022-09-23T11:51:43;3.15;;;2.30;;
65145;SDS011;51730;56.950;24.126;2022-09-23T11:57:08;3.10;;;1.20;;
65145;SDS011;51730;56.950;24.126;2022-09-23T11:59:42;1.60;;;1.50;;
65145;SDS011;51730;56.950;24.126;2022-09-23T12:02:21;2.65;;;1.80;;
65145;SDS011;51730;56.950;24.126;2022-09-23T12:05:08;2.35;;;1.70;;
65145;SDS011;51730;56.950;24.126;2022-09-23T12:07:56;5.28;;;2.65;;
65145;SDS011;51730;56.950;24.126;2022-09-23T12:13:48;3.85;;;2.33;;
65145;SDS011;51730;56.950;24.126;2022-09-23T12:24:46;3.30;;;2.05;;
65145;SDS011;51730;56.950;24.126;2022-09-23T12:27:30;3.70;;;2.13;;
65145;SDS011;51730;56.950;24.126;2022-09-23T12:30:16;3.58;;;2.35;;
65145;SDS011;51730;56.950;24.126;2022-09-23T12:32:46;2.42;;;2.10;;
65145;SDS011;51730;56.950;24.126;2022-09-23T12:37:51;3.38;;;1.90;;
65145;SDS011;51730;56.950;24.126;2022-09-23T12:42:48;2.42;;;1.80;;
65145;SDS011;51730;56.950;24.126;2022-09-23T12:47:57;2.63;;;2.28;;
65145;SDS011;51730;56.950;24.126;2022-09-23T13:03:54;3.03;;;2.00;;
65145;SDS011;51730;56.950;24.126;2022-09-23T13:06:57;8.57;;;3.00;;
65145;SDS011;51730;56.950;24.126;2022-09-23T13:09:36;4.45;;;3.10;;
65145;SDS011;51730;56.950;24.126;2022-09-23T13:12:09;2.90;;;2.05;;
65145;SDS011;51730;56.950;24.126;2022-09-23T13:14:50;3.75;;;2.17;;
65145;SDS011;51730;56.950;24.126;2022-09-23T13:17:25;4.13;;;2.30;;
65145;SDS011;51730;56.950;24.126;2022-09-23T13:20:05;3.65;;;2.70;;
65145;SDS011;51730;56.950;24.126;2022-09-23T13:25:24;2.72;;;2.03;;
65145;SDS011;51730;56.950;24.126;2022-09-23T13:27:55;3.00;;;2.20;;
65145;SDS011;51730;56.950;24.126;2022-09-23T13:30:27;4.32;;;2.30;;
65145;SDS011;51730;56.950;24.126;2022-09-23T13:33:10;4.30;;;2.08;;
65145;SDS011;51730;56.950;24.126;2022-09-23T13:35:42;6.00;;;3.40;;
65145;SDS011;51730;56.950;24.126;2022-09-23T13:38:25;3.05;;;2.13;;
65145;SDS011;51730;56.950;24.126;2022-09-23T13:41:02;2.92;;;2.58;;
65145;SDS011;51730;56.950;24.126;2022-09-23T13:43:34;3.35;;;2.13;;
65145;SDS011;51730;56.950;24.126;2022-09-23T13:46:21;1.98;;;1.75;;
65145;SDS011;51730;56.950;24.126;2022-09-23T13:48:54;4.25;;;2.00;;
65145;SDS011;51730;56.950;24.126;2022-09-23T13:51:25;5.72;;;2.42;;
65145;SDS011;51730;56.950;24.126;2022-09-23T13:54:02;3.47;;;2.40;;
65145;SDS011;51730;56.950;24.126;2022-09-23T13:56:33;6.10;;;3.47;;
65145;SDS011;51730;56.950;24.126;2022-09-23T14:02:13;4.32;;;2.85;;
65145;SDS011;51730;56.950;24.126;2022-09-23T14:04:42;3.08;;;2.35;;
65145;SDS011;51730;56.950;24.126;2022-09-23T14:07:10;2.60;;;1.70;;
65145;SDS011;51730;56.950;24.126;2022-09-23T14:09:42;3.65;;;2.03;;
65145;SDS011;51730;56.950;24.126;2022-09-23T14:12:11;7.33;;;3.30;;
65145;SDS011;51730;56.950;24.126;2022-09-23T14:14:40;6.20;;;2.67;;
65145;SDS011;51730;56.950;24.126;2022-09-23T14:17:18;4.85;;;2.45;;
65145;SDS011;51730;56.950;24.126;2022-09-23T14:19:48;5.35;;;2.97;;
65145;SDS011;51730;56.950;24.126;2022-09-23T14:22:26;5.18;;;2.83;;
65145;SDS011;51730;56.950;24.126;2022-09-23T14:24:55;3.03;;;2.35;;
65145;SDS011;51730;56.950;24.126;2022-09-23T14:27:29;4.90;;;1.67;;
65145;SDS011;51730;56.950;24.126;2022-09-23T14:29:57;4.10;;;3.15;;
65145;SDS011;51730;56.950;24.126;2022-09-23T14:32:29;3.55;;;2.50;;
65145;SDS011;51730;56.950;24.126;2022-09-23T14:37:30;3.90;;;2.55;;
65145;SDS011;51730;56.950;24.126;2022-09-23T14:40:26;2.78;;;2.35;;
65145;SDS011;51730;56.950;24.126;2022-09-23T14:45:33;2.55;;;2.35;;
65145;SDS011;51730;56.950;24.126;2022-09-23T14:48:06;2.13;;;1.60;;
65145;SDS011;51730;56.950;24.126;2022-09-23T14:50:36;2.60;;;1.80;;
65145;SDS011;51730;56.950;24.126;2022-09-23T14:55:51;3.08;;;2.28;;
65145;SDS011;51730;56.950;24.126;2022-09-23T14:58:24;2.25;;;1.67;;
65145;SDS011;51730;56.950;24.126;2022-09-23T15:00:59;4.38;;;2.25;;
65145;SDS011;51730;56.950;24.126;2022-09-23T15:06:04;3.88;;;2.20;;
65145;SDS011;51730;56.950;24.126;2022-09-23T15:08:34;4.55;;;2.60;;
65145;SDS011;51730;56.950;24.126;2022-09-23T15:11:02;4.95;;;2.17;;
65145;SDS011;51730;56.950;24.126;2022-09-23T15:13:42;2.83;;;2.28;;
65145;SDS011;51730;56.950;24.126;2022-09-23T15:16:15;5.72;;;2.60;;
65145;SDS011;51730;56.950;24.126;2022-09-23T15:18:53;3.95;;;2.63;;
65145;SDS011;51730;56.950;24.126;2022-09-23T15:21:23;7.93;;;4.20;;
65145;SDS011;51730;56.950;24.126;2022-09-23T15:24:02;3.55;;;2.45;;
65145;SDS011;51730;56.950;24.126;2022-09-23T15:29:10;3.65;;;2.53;;
65145;SDS011;51730;56.950;24.126;2022-09-23T15:31:37;5.88;;;2.95;;
65145;SDS011;51730;56.950;24.126;2022-09-23T15:34:04;7.88;;;3.13;;
65145;SDS011;51730;56.950;24.126;2022-09-23T15:36:31;3.67;;;2.63;;
65145;SDS011;51730;56.950;24.126;2022-09-23T15:39:00;7.38;;;2.60;;
65145;SDS011;51730;56.950;24.126;2022-09-23T15:41:29;6.05;;;2.70;;
65145;SDS011;51730;56.950;24.126;2022-09-23T15:44:04;4.82;;;2.47;;
65145;SDS011;51730;56.950;24.126;2022-09-23T15:46:45;7.10;;;2.88;;
65145;SDS011;51730;56.950;24.126;2022-09-23T15:49:19;3.78;;;2.75;;
65145;SDS011;51730;56.950;24.126;2022-09-23T15:52:04;4.05;;;2.20;;
65145;SDS011;51730;56.950;24.126;2022-09-23T15:54:33;3.85;;;2.38;;
65145;SDS011;51730;56.950;24.126;2022-09-23T15:57:04;4.28;;;2.70;;
65145;SDS011;51730;56.950;24.126;2022-09-23T15:59:31;4.72;;;3.50;;
65145;SDS011;51730;56.950;24.126;2022-09-23T16:02:01;4.55;;;2.83;;
65145;SDS011;51730;56.950;24.126;2022-09-23T16:04:34;3.72;;;2.95;;
65145;SDS011;51730;56.950;24.126;2022-09-23T16:07:01;9.13;;;3.30;;
65145;SDS011;51730;56.950;24.126;2022-09-23T16:09:29;3.30;;;2.22;;
65145;SDS011;51730;56.950;24.126;2022-09-23T16:11:56;3.88;;;2.22;;
65145;SDS011;51730;56.950;24.126;2022-09-23T16:14:25;3.45;;;2.35;;
65145;SDS011;51730;56.950;24.126;2022-09-23T16:16:52;5.43;;;3.10;;
65145;SDS011;51730;56.950;24.126;2022-09-23T16:19:19;3.70;;;2.63;;
65145;SDS011;51730;56.950;24.126;2022-09-23T16:21:48;7.35;;;2.97;;
65145;SDS011;51730;56.950;24.126;2022-09-23T16:24:16;5.72;;;3.17;;
65145;SDS011;51730;56.950;24.126;2022-09-23T16:26:44;3.47;;;2.60;;
65145;SDS011;51730;56.950;24.126;2022-09-23T16:29:13;7.82;;;4.25;;
65145;SDS011;51730;56.950;24.126;2022-09-23T16:31:41;7.40;;;3.40;;
65145;SDS011;51730;56.950;24.126;2022-09-23T16:34:11;4.30;;;3.83;;
65145;SDS011;51730;56.950;24.126;2022-09-23T16:36:38;5.32;;;3.92;;
65145;SDS011;51730;56.950;24.126;2022-09-23T16:39:17;6.43;;;4.57;;
65145;SDS011;51730;56.950;24.126;2022-09-23T16:41:59;6.93;;;4.13;;
65145;SDS011;51730;56.950;24.126;2022-09-23T16:44:55;8.48;;;4.57;;
65145;SDS011;51730;56.950;24.126;2022-09-23T16:47:24;6.05;;;4.35;;
65145;SDS011;51730;56.950;24.126;2022-09-23T16:50:34;14.18;;;7.55;;
65145;SDS011;51730;56.950;24.126;2022-09-23T16:53:02;9.30;;;5.90;;
65145;SDS011;51730;56.950;24.126;2022-09-23T16:55:28;8.25;;;5.43;;
65145;SDS011;51730;56.950;24.126;2022-09-23T16:57:56;18.17;;;7.50;;
65145;SDS011;51730;56.950;24.126;2022-09-23T17:00:23;10.80;;;7.25;;
65145;SDS011;51730;56.950;24.126;2022-09-23T17:03:09;11.68;;;6.30;;
65145;SDS011;51730;56.950;24.126;2022-09-23T17:05:56;13.10;;;7.35;;
65145;SDS011;51730;56.950;24.126;2022-09-23T17:08:23;23.40;;;14.82;;
65145;SDS011;51730;56.950;24.126;2022-09-23T17:10:54;23.33;;;15.02;;
65145;SDS011;51730;56.950;24.126;2022-09-23T17:13:24;17.00;;;9.18;;
65145;SDS011;51730;56.950;24.126;2022-09-23T17:15:55;13.77;;;7.43;;
65145;SDS011;51730;56.950;24.126;2022-09-23T17:18:22;18.52;;;8.48;;
65145;SDS011;51730;56.950;24.126;2022-09-23T17:21:00;26.15;;;17.63;;
65145;SDS011;51730;56.950;24.126;2022-09-23T17:23:29;23.35;;;16.75;;
65145;SDS011;51730;56.950;24.126;2022-09-23T17:25:58;21.40;;;10.05;;
65145;SDS011;51730;56.950;24.126;2022-09-23T17:28:24;15.57;;;8.07;;
65145;SDS011;51730;56.950;24.126;2022-09-23T17:30:55;50.40;;;35.33;;
65145;SDS011;51730;56.950;24.126;2022-09-23T17:33:24;74.88;;;50.00;;
65145;SDS011;51730;56.950;24.126;2022-09-23T17:35:51;33.40;;;21.08;;
65145;SDS011;51730;56.950;24.126;2022-09-23T17:38:20;21.88;;;13.43;;
65145;SDS011;51730;56.950;24.126;2022-09-23T17:40:55;19.58;;;14.50;;
65145;SDS011;51730;56.950;24.126;2022-09-23T17:43:24;57.05;;;40.20;;
65145;SDS011;51730;56.950;24.126;2022-09-23T17:45:51;49.88;;;33.83;;
65145;SDS011;51730;56.950;24.126;2022-09-23T17:48:20;28.98;;;20.77;;
65145;SDS011;51730;56.950;24.126;2022-09-23T17:50:56;15.43;;;8.45;;
65145;SDS011;51730;56.950;24.126;2022-09-23T17:53:24;15.13;;;6.72;;